sensor_id;sensor_type;location;lat;lon;timestamp;temperature;humidity
54264;DHT22;40178;53.042;6.406;2023-07-20T00:00:26;15.30;99.90
54264;DHT22;40178;53.042;6.406;2023-07-20T00:02:51;15.20;99.90
54264;DHT22;40178;53.042;6.406;2023-07-20T00:05:17;15.30;99.90
54264;DHT22;40178;53.042;6.406;2023-07-20T00:07:50;15.20;99.90
54264;DHT22;40178;53.042;6.406;2023-07-20T00:10:17;15.20;99.90
54264;DHT22;40178;53.042;6.406;2023-07-20T00:12:43;15.20;99.90
54264;DHT22;40178;53.042;6.406;2023-07-20T00:15:13;15.20;99.90
54264;DHT22;40178;53.042;6.406;2023-07-20T00:17:38;15.20;99.90
54264;DHT22;40178;53.042;6.406;2023-07-20T00:20:06;15.20;99.90
54264;DHT22;40178;53.042;6.406;2023-07-20T00:22:31;15.20;99.90
54264;DHT22;40178;53.042;6.406;2023-07-20T00:24:57;15.10;99.90
54264;DHT22;40178;53.042;6.406;2023-07-20T00:27:23;15.10;99.90
54264;DHT22;40178;53.042;6.406;2023-07-20T00:29:48;15.10;99.90
54264;DHT22;40178;53.042;6.406;2023-07-20T00:32:14;15.10;99.90
54264;DHT22;40178;53.042;6.406;2023-07-20T00:34:39;15.10;99.90
54264;DHT22;40178;53.042;6.406;2023-07-20T00:37:05;15.10;99.90
54264;DHT22;40178;53.042;6.406;2023-07-20T00:39:33;15.00;99.90
54264;DHT22;40178;53.042;6.406;2023-07-20T00:41:59;14.90;99.90
54264;DHT22;40178;53.042;6.406;2023-07-20T00:44:25;14.80;99.90
54264;DHT22;40178;53.042;6.406;2023-07-20T00:46:51;14.90;99.90
54264;DHT22;40178;53.042;6.406;2023-07-20T00:49:17;14.80;99.90
54264;DHT22;40178;53.042;6.406;2023-07-20T00:51:47;14.70;99.90
54264;DHT22;40178;53.042;6.406;2023-07-20T00:54:13;14.60;99.90
54264;DHT22;40178;53.042;6.406;2023-07-20T00:56:39;14.50;99.90
54264;DHT22;40178;53.042;6.406;2023-07-20T00:59:05;14.50;99.90
54264;DHT22;40178;53.042;6.406;2023-07-20T01:01:31;14.40;99.90
54264;DHT22;40178;53.042;6.406;2023-07-20T01:03:56;14.30;99.90
54264;DHT22;40178;53.042;6.406;2023-07-20T01:06:36;14.30;99.90
54264;DHT22;40178;53.042;6.406;2023-07-20T01:09:13;14.30;99.90
54264;DHT22;40178;53.042;6.406;2023-07-20T01:14:18;14.10;99.90
54264;DHT22;40178;53.042;6.406;2023-07-20T01:16:44;14.00;99.90
54264;DHT22;40178;53.042;6.406;2023-07-20T01:19:10;13.90;99.90
54264;DHT22;40178;53.042;6.406;2023-07-20T01:21:51;13.90;99.90
54264;DHT22;40178;53.042;6.406;2023-07-20T01:24:37;13.80;99.90
54264;DHT22;40178;53.042;6.406;2023-07-20T01:27:33;13.70;99.90
54264;DHT22;40178;53.042;6.406;2023-07-20T01:33:00;13.50;99.90
54264;DHT22;40178;53.042;6.406;2023-07-20T01:35:29;13.50;99.90
54264;DHT22;40178;53.042;6.406;2023-07-20T01:37:56;13.40;99.90
54264;DHT22;40178;53.042;6.406;2023-07-20T01:40:24;13.40;99.90
54264;DHT22;40178;53.042;6.406;2023-07-20T01:42:51;13.30;99.90
54264;DHT22;40178;53.042;6.406;2023-07-20T01:45:17;13.30;99.90
54264;DHT22;40178;53.042;6.406;2023-07-20T01:47:43;13.20;99.90
54264;DHT22;40178;53.042;6.406;2023-07-20T01:50:09;13.20;99.90
54264;DHT22;40178;53.042;6.406;2023-07-20T01:52:35;13.10;99.90
54264;DHT22;40178;53.042;6.406;2023-07-20T01:55:00;13.00;99.90
54264;DHT22;40178;53.042;6.406;2023-07-20T01:57:26;13.00;99.90
54264;DHT22;40178;53.042;6.406;2023-07-20T01:59:51;13.00;99.90
54264;DHT22;40178;53.042;6.406;2023-07-20T02:02:18;12.90;99.90
54264;DHT22;40178;53.042;6.406;2023-07-20T02:04:43;12.90;99.90
54264;DHT22;40178;53.042;6.406;2023-07-20T02:07:09;12.90;99.90
54264;DHT22;40178;53.042;6.406;2023-07-20T02:09:35;12.80;99.90
54264;DHT22;40178;53.042;6.406;2023-07-20T02:12:00;12.80;99.90
54264;DHT22;40178;53.042;6.406;2023-07-20T02:14:26;12.80;99.90
54264;DHT22;40178;53.042;6.406;2023-07-20T02:16:52;12.80;99.90
54264;DHT22;40178;53.042;6.406;2023-07-20T02:19:20;12.90;99.90
54264;DHT22;40178;53.042;6.406;2023-07-20T02:21:46;12.80;99.90
54264;DHT22;40178;53.042;6.406;2023-07-20T02:24:12;12.70;99.90
54264;DHT22;40178;53.042;6.406;2023-07-20T02:26:38;12.60;99.90
54264;DHT22;40178;53.042;6.406;2023-07-20T02:29:04;12.60;99.90
54264;DHT22;40178;53.042;6.406;2023-07-20T02:31:33;12.60;99.90
54264;DHT22;40178;53.042;6.406;2023-07-20T02:33:58;12.50;99.90
54264;DHT22;40178;53.042;6.406;2023-07-20T02:36:24;12.60;99.90
54264;DHT22;40178;53.042;6.406;2023-07-20T02:38:50;12.40;99.90
54264;DHT22;40178;53.042;6.406;2023-07-20T02:41:15;12.40;99.90
54264;DHT22;40178;53.042;6.406;2023-07-20T02:43:41;12.40;99.90
54264;DHT22;40178;53.042;6.406;2023-07-20T02:46:07;12.30;99.90
54264;DHT22;40178;53.042;6.406;2023-07-20T02:48:32;12.30;99.90
54264;DHT22;40178;53.042;6.406;2023-07-20T02:50:58;12.30;99.90
54264;DHT22;40178;53.042;6.406;2023-07-20T02:53:23;12.30;99.90
54264;DHT22;40178;53.042;6.406;2023-07-20T02:55:49;12.30;99.90
54264;DHT22;40178;53.042;6.406;2023-07-20T02:58:15;12.20;99.90
54264;DHT22;40178;53.042;6.406;2023-07-20T03:00:42;12.20;99.90
54264;DHT22;40178;53.042;6.406;2023-07-20T03:03:08;12.00;99.90
54264;DHT22;40178;53.042;6.406;2023-07-20T03:05:35;12.10;99.90
54264;DHT22;40178;53.042;6.406;2023-07-20T03:08:03;12.00;99.90
54264;DHT22;40178;53.042;6.406;2023-07-20T03:10:31;11.90;99.90
54264;DHT22;40178;53.042;6.406;2023-07-20T03:12:57;11.90;99.90
54264;DHT22;40178;53.042;6.406;2023-07-20T03:15:23;11.90;99.90
54264;DHT22;40178;53.042;6.406;2023-07-20T03:17:48;11.80;99.90
54264;DHT22;40178;53.042;6.406;2023-07-20T03:20:14;11.70;99.90
54264;DHT22;40178;53.042;6.406;2023-07-20T03:22:40;11.70;99.90
54264;DHT22;40178;53.042;6.406;2023-07-20T03:25:06;11.80;99.90
54264;DHT22;40178;53.042;6.406;2023-07-20T03:27:31;11.60;99.90
54264;DHT22;40178;53.042;6.406;2023-07-20T03:29:57;11.60;99.90
54264;DHT22;40178;53.042;6.406;2023-07-20T03:32:23;11.50;99.90
54264;DHT22;40178;53.042;6.406;2023-07-20T03:34:48;11.50;99.90
54264;DHT22;40178;53.042;6.406;2023-07-20T03:37:14;11.30;99.90
54264;DHT22;40178;53.042;6.406;2023-07-20T03:39:40;11.40;99.90
54264;DHT22;40178;53.042;6.406;2023-07-20T03:42:06;11.40;99.90
54264;DHT22;40178;53.042;6.406;2023-07-20T03:44:31;11.40;99.90
54264;DHT22;40178;53.042;6.406;2023-07-20T03:46:57;11.40;99.90
54264;DHT22;40178;53.042;6.406;2023-07-20T03:49:23;11.50;99.90
54264;DHT22;40178;53.042;6.406;2023-07-20T03:51:48;11.50;99.90
54264;DHT22;40178;53.042;6.406;2023-07-20T03:54:14;11.30;99.90
54264;DHT22;40178;53.042;6.406;2023-07-20T03:56:40;11.50;99.90
54264;DHT22;40178;53.042;6.406;2023-07-20T03:59:05;11.40;99.90
54264;DHT22;40178;53.042;6.406;2023-07-20T04:01:31;11.40;99.90
54264;DHT22;40178;53.042;6.406;2023-07-20T04:04:06;11.40;99.90
54264;DHT22;40178;53.042;6.406;2023-07-20T04:06:32;11.40;99.90
54264;DHT22;40178;53.042;6.406;2023-07-20T04:08:58;11.40;99.90
54264;DHT22;40178;53.042;6.406;2023-07-20T04:11:24;11.40;99.90
54264;DHT22;40178;53.042;6.406;2023-07-20T04:13:49;11.40;99.90
54264;DHT22;40178;53.042;6.406;2023-07-20T04:16:15;11.50;99.90
54264;DHT22;40178;53.042;6.406;2023-07-20T04:18:41;11.50;99.90
54264;DHT22;40178;53.042;6.406;2023-07-20T04:21:08;11.50;99.90
54264;DHT22;40178;53.042;6.406;2023-07-20T04:23:34;11.50;99.90
54264;DHT22;40178;53.042;6.406;2023-07-20T04:26:01;11.50;99.90
54264;DHT22;40178;53.042;6.406;2023-07-20T04:28:27;11.60;99.90
54264;DHT22;40178;53.042;6.406;2023-07-20T04:30:53;11.70;99.90
54264;DHT22;40178;53.042;6.406;2023-07-20T04:33:19;11.60;99.90
54264;DHT22;40178;53.042;6.406;2023-07-20T04:35:54;11.60;99.90
54264;DHT22;40178;53.042;6.406;2023-07-20T04:38:20;11.70;99.90
54264;DHT22;40178;53.042;6.406;2023-07-20T04:40:49;11.80;99.90
54264;DHT22;40178;53.042;6.406;2023-07-20T04:43:16;11.80;99.90
54264;DHT22;40178;53.042;6.406;2023-07-20T04:45:42;11.80;99.90
54264;DHT22;40178;53.042;6.406;2023-07-20T04:48:12;11.90;99.90
54264;DHT22;40178;53.042;6.406;2023-07-20T04:50:42;11.90;99.90
54264;DHT22;40178;53.042;6.406;2023-07-20T04:53:09;12.00;99.90
54264;DHT22;40178;53.042;6.406;2023-07-20T04:55:36;12.00;99.90
54264;DHT22;40178;53.042;6.406;2023-07-20T04:58:03;12.00;99.90
54264;DHT22;40178;53.042;6.406;2023-07-20T05:00:29;11.90;99.90
54264;DHT22;40178;53.042;6.406;2023-07-20T05:02:56;12.10;99.90
54264;DHT22;40178;53.042;6.406;2023-07-20T05:05:22;12.10;99.90
54264;DHT22;40178;53.042;6.406;2023-07-20T05:07:47;12.20;99.90
54264;DHT22;40178;53.042;6.406;2023-07-20T05:10:13;12.30;99.90
54264;DHT22;40178;53.042;6.406;2023-07-20T05:12:39;12.40;99.90
54264;DHT22;40178;53.042;6.406;2023-07-20T05:15:05;12.40;99.90
54264;DHT22;40178;53.042;6.406;2023-07-20T05:17:30;12.60;99.90
54264;DHT22;40178;53.042;6.406;2023-07-20T05:19:56;12.70;99.90
54264;DHT22;40178;53.042;6.406;2023-07-20T05:22:22;12.80;99.90
54264;DHT22;40178;53.042;6.406;2023-07-20T05:24:47;13.00;99.90
54264;DHT22;40178;53.042;6.406;2023-07-20T05:27:13;13.00;99.90
54264;DHT22;40178;53.042;6.406;2023-07-20T05:29:46;13.20;99.90
54264;DHT22;40178;53.042;6.406;2023-07-20T05:32:13;13.30;99.90
54264;DHT22;40178;53.042;6.406;2023-07-20T05:34:38;13.50;99.90
54264;DHT22;40178;53.042;6.406;2023-07-20T05:37:04;13.60;99.90
54264;DHT22;40178;53.042;6.406;2023-07-20T05:39:32;13.70;99.90
54264;DHT22;40178;53.042;6.406;2023-07-20T05:41:58;13.80;99.90
54264;DHT22;40178;53.042;6.406;2023-07-20T05:44:23;14.00;99.90
54264;DHT22;40178;53.042;6.406;2023-07-20T05:46:49;14.10;99.90
54264;DHT22;40178;53.042;6.406;2023-07-20T05:49:15;14.20;99.90
54264;DHT22;40178;53.042;6.406;2023-07-20T05:51:40;14.40;99.90
54264;DHT22;40178;53.042;6.406;2023-07-20T05:54:06;14.50;99.90
54264;DHT22;40178;53.042;6.406;2023-07-20T05:56:32;14.60;99.90
54264;DHT22;40178;53.042;6.406;2023-07-20T05:58:57;14.80;99.90
54264;DHT22;40178;53.042;6.406;2023-07-20T06:01:23;14.90;99.90
54264;DHT22;40178;53.042;6.406;2023-07-20T06:03:52;14.90;99.90
54264;DHT22;40178;53.042;6.406;2023-07-20T06:06:18;15.00;99.90
54264;DHT22;40178;53.042;6.406;2023-07-20T06:08:44;15.20;99.90
54264;DHT22;40178;53.042;6.406;2023-07-20T06:11:10;15.20;99.90
54264;DHT22;40178;53.042;6.406;2023-07-20T06:13:35;15.30;99.90
54264;DHT22;40178;53.042;6.406;2023-07-20T06:16:01;15.40;99.90
54264;DHT22;40178;53.042;6.406;2023-07-20T06:18:27;15.50;99.90
54264;DHT22;40178;53.042;6.406;2023-07-20T06:20:53;15.50;99.90
54264;DHT22;40178;53.042;6.406;2023-07-20T06:23:19;15.60;99.90
54264;DHT22;40178;53.042;6.406;2023-07-20T06:25:45;15.70;99.90
54264;DHT22;40178;53.042;6.406;2023-07-20T06:28:11;15.80;99.90
54264;DHT22;40178;53.042;6.406;2023-07-20T06:30:37;15.90;99.90
54264;DHT22;40178;53.042;6.406;2023-07-20T06:33:02;16.00;99.90
54264;DHT22;40178;53.042;6.406;2023-07-20T06:35:28;16.00;99.90
54264;DHT22;40178;53.042;6.406;2023-07-20T06:37:54;16.20;99.90
54264;DHT22;40178;53.042;6.406;2023-07-20T06:40:20;16.20;99.90
54264;DHT22;40178;53.042;6.406;2023-07-20T06:42:46;16.30;99.60
54264;DHT22;40178;53.042;6.406;2023-07-20T06:45:12;16.30;94.20
54264;DHT22;40178;53.042;6.406;2023-07-20T06:47:38;16.40;96.30
54264;DHT22;40178;53.042;6.406;2023-07-20T06:50:06;16.50;93.20
54264;DHT22;40178;53.042;6.406;2023-07-20T06:52:33;16.40;91.10
54264;DHT22;40178;53.042;6.406;2023-07-20T06:54:58;16.50;90.80
54264;DHT22;40178;53.042;6.406;2023-07-20T06:57:25;16.60;90.50
54264;DHT22;40178;53.042;6.406;2023-07-20T06:59:51;16.70;88.40
54264;DHT22;40178;53.042;6.406;2023-07-20T07:02:17;16.70;80.60
54264;DHT22;40178;53.042;6.406;2023-07-20T07:04:42;16.80;85.30
54264;DHT22;40178;53.042;6.406;2023-07-20T07:07:08;16.80;74.30
54264;DHT22;40178;53.042;6.406;2023-07-20T07:09:35;16.90;73.30
54264;DHT22;40178;53.042;6.406;2023-07-20T07:12:00;17.00;61.10
54264;DHT22;40178;53.042;6.406;2023-07-20T07:14:26;17.10;72.20
54264;DHT22;40178;53.042;6.406;2023-07-20T07:16:52;17.10;54.90
54264;DHT22;40178;53.042;6.406;2023-07-20T07:19:17;17.00;52.60
54264;DHT22;40178;53.042;6.406;2023-07-20T07:21:43;17.00;51.00
54264;DHT22;40178;53.042;6.406;2023-07-20T07:24:09;17.10;45.70
54264;DHT22;40178;53.042;6.406;2023-07-20T07:26:38;17.20;37.80
54264;DHT22;40178;53.042;6.406;2023-07-20T07:29:04;17.30;49.40
54264;DHT22;40178;53.042;6.406;2023-07-20T07:31:30;17.30;38.50
54264;DHT22;40178;53.042;6.406;2023-07-20T07:33:56;17.30;27.00
54264;DHT22;40178;53.042;6.406;2023-07-20T07:36:22;17.20;26.00
54264;DHT22;40178;53.042;6.406;2023-07-20T07:38:50;17.40;28.00
54264;DHT22;40178;53.042;6.406;2023-07-20T07:41:16;17.40;17.30
54264;DHT22;40178;53.042;6.406;2023-07-20T07:43:42;17.30;36.10
54264;DHT22;40178;53.042;6.406;2023-07-20T07:46:08;17.20;35.30
54264;DHT22;40178;53.042;6.406;2023-07-20T07:48:33;17.40;37.10
54264;DHT22;40178;53.042;6.406;2023-07-20T07:51:00;17.40;27.50
54264;DHT22;40178;53.042;6.406;2023-07-20T07:53:26;17.50;27.90
54264;DHT22;40178;53.042;6.406;2023-07-20T07:55:52;17.80;18.90
54264;DHT22;40178;53.042;6.406;2023-07-20T07:58:17;17.80;1.00
54264;DHT22;40178;53.042;6.406;2023-07-20T08:00:43;17.80;1.00
54264;DHT22;40178;53.042;6.406;2023-07-20T08:03:10;17.60;1.00
54264;DHT22;40178;53.042;6.406;2023-07-20T08:05:36;17.60;1.00
54264;DHT22;40178;53.042;6.406;2023-07-20T08:08:03;17.60;1.00
54264;DHT22;40178;53.042;6.406;2023-07-20T08:10:31;17.70;1.00
54264;DHT22;40178;53.042;6.406;2023-07-20T08:12:57;17.90;1.00
54264;DHT22;40178;53.042;6.406;2023-07-20T08:15:23;18.20;1.00
54264;DHT22;40178;53.042;6.406;2023-07-20T08:17:48;18.20;1.00
54264;DHT22;40178;53.042;6.406;2023-07-20T08:20:17;18.40;1.00
54264;DHT22;40178;53.042;6.406;2023-07-20T08:22:43;18.50;1.00
54264;DHT22;40178;53.042;6.406;2023-07-20T08:25:09;18.80;99.90
54264;DHT22;40178;53.042;6.406;2023-07-20T08:27:35;18.90;99.90
54264;DHT22;40178;53.042;6.406;2023-07-20T08:30:01;18.80;99.90
54264;DHT22;40178;53.042;6.406;2023-07-20T08:32:27;18.80;1.00
54264;DHT22;40178;53.042;6.406;2023-07-20T08:34:53;18.60;1.00
54264;DHT22;40178;53.042;6.406;2023-07-20T08:37:19;18.50;1.00
54264;DHT22;40178;53.042;6.406;2023-07-20T08:39:44;18.40;1.00
54264;DHT22;40178;53.042;6.406;2023-07-20T08:42:10;18.50;99.90
54264;DHT22;40178;53.042;6.406;2023-07-20T08:44:39;18.80;99.90
54264;DHT22;40178;53.042;6.406;2023-07-20T08:47:06;19.00;99.90
54264;DHT22;40178;53.042;6.406;2023-07-20T08:49:35;19.20;35.50
54264;DHT22;40178;53.042;6.406;2023-07-20T08:52:02;19.30;99.90
54264;DHT22;40178;53.042;6.406;2023-07-20T08:54:30;19.50;1.00
54264;DHT22;40178;53.042;6.406;2023-07-20T08:57:03;19.50;1.00
54264;DHT22;40178;53.042;6.406;2023-07-20T08:59:30;19.10;1.00
54264;DHT22;40178;53.042;6.406;2023-07-20T09:01:59;19.10;99.90
54264;DHT22;40178;53.042;6.406;2023-07-20T09:04:25;19.10;1.00
54264;DHT22;40178;53.042;6.406;2023-07-20T09:06:51;19.30;99.90
54264;DHT22;40178;53.042;6.406;2023-07-20T09:09:17;19.70;99.90
54264;DHT22;40178;53.042;6.406;2023-07-20T09:11:43;19.90;1.00
54264;DHT22;40178;53.042;6.406;2023-07-20T09:14:10;20.10;1.00
54264;DHT22;40178;53.042;6.406;2023-07-20T09:16:55;20.20;99.90
54264;DHT22;40178;53.042;6.406;2023-07-20T09:19:21;20.20;1.00
54264;DHT22;40178;53.042;6.406;2023-07-20T09:21:51;20.30;1.00
54264;DHT22;40178;53.042;6.406;2023-07-20T09:24:19;20.20;12.40
54264;DHT22;40178;53.042;6.406;2023-07-20T09:26:46;20.20;99.90
54264;DHT22;40178;53.042;6.406;2023-07-20T09:29:14;20.40;99.90
54264;DHT22;40178;53.042;6.406;2023-07-20T09:31:39;20.50;1.00
54264;DHT22;40178;53.042;6.406;2023-07-20T09:34:06;20.60;1.00
54264;DHT22;40178;53.042;6.406;2023-07-20T09:36:36;20.60;99.90
54264;DHT22;40178;53.042;6.406;2023-07-20T09:39:03;20.80;1.00
54264;DHT22;40178;53.042;6.406;2023-07-20T09:41:29;21.00;1.00
54264;DHT22;40178;53.042;6.406;2023-07-20T09:43:55;21.00;1.00
54264;DHT22;40178;53.042;6.406;2023-07-20T09:46:21;20.90;1.00
54264;DHT22;40178;53.042;6.406;2023-07-20T09:48:53;20.70;1.00
54264;DHT22;40178;53.042;6.406;2023-07-20T09:51:22;20.40;1.00
54264;DHT22;40178;53.042;6.406;2023-07-20T09:53:49;20.60;32.50
54264;DHT22;40178;53.042;6.406;2023-07-20T09:56:17;20.20;1.00
54264;DHT22;40178;53.042;6.406;2023-07-20T09:58:46;20.10;96.80
54264;DHT22;40178;53.042;6.406;2023-07-20T10:01:12;19.90;99.90
54264;DHT22;40178;53.042;6.406;2023-07-20T10:03:41;19.70;99.90
54264;DHT22;40178;53.042;6.406;2023-07-20T10:06:10;19.50;99.90
54264;DHT22;40178;53.042;6.406;2023-07-20T10:08:41;19.40;1.00
54264;DHT22;40178;53.042;6.406;2023-07-20T10:11:08;19.20;99.90
54264;DHT22;40178;53.042;6.406;2023-07-20T10:13:38;19.30;1.00
54264;DHT22;40178;53.042;6.406;2023-07-20T10:16:10;19.50;1.00
54264;DHT22;40178;53.042;6.406;2023-07-20T10:18:59;19.90;99.90
54264;DHT22;40178;53.042;6.406;2023-07-20T10:21:27;20.30;99.90
54264;DHT22;40178;53.042;6.406;2023-07-20T10:23:56;20.60;99.90
54264;DHT22;40178;53.042;6.406;2023-07-20T10:26:22;20.70;1.00
54264;DHT22;40178;53.042;6.406;2023-07-20T10:28:48;21.10;1.00
54264;DHT22;40178;53.042;6.406;2023-07-20T10:31:14;21.40;1.00
54264;DHT22;40178;53.042;6.406;2023-07-20T10:33:41;21.60;1.00
54264;DHT22;40178;53.042;6.406;2023-07-20T10:36:07;21.70;99.90
54264;DHT22;40178;53.042;6.406;2023-07-20T10:41:20;21.90;99.90
54264;DHT22;40178;53.042;6.406;2023-07-20T10:43:47;22.00;99.90
54264;DHT22;40178;53.042;6.406;2023-07-20T10:46:13;22.10;99.90
54264;DHT22;40178;53.042;6.406;2023-07-20T10:49:01;22.30;99.90
54264;DHT22;40178;53.042;6.406;2023-07-20T10:51:28;22.00;99.90
54264;DHT22;40178;53.042;6.406;2023-07-20T10:53:58;21.60;99.90
54264;DHT22;40178;53.042;6.406;2023-07-20T10:56:28;21.10;99.90
54264;DHT22;40178;53.042;6.406;2023-07-20T10:59:00;21.00;99.90
54264;DHT22;40178;53.042;6.406;2023-07-20T11:01:30;20.80;99.90
54264;DHT22;40178;53.042;6.406;2023-07-20T11:03:58;21.00;99.90
54264;DHT22;40178;53.042;6.406;2023-07-20T11:11:34;21.20;99.90
54264;DHT22;40178;53.042;6.406;2023-07-20T11:14:10;21.30;99.90
54264;DHT22;40178;53.042;6.406;2023-07-20T11:16:38;21.40;99.90
54264;DHT22;40178;53.042;6.406;2023-07-20T11:19:05;21.40;99.90
54264;DHT22;40178;53.042;6.406;2023-07-20T11:21:38;21.10;99.90
54264;DHT22;40178;53.042;6.406;2023-07-20T11:24:05;21.20;99.90
54264;DHT22;40178;53.042;6.406;2023-07-20T11:26:40;21.50;99.90
54264;DHT22;40178;53.042;6.406;2023-07-20T11:29:05;21.40;99.90
54264;DHT22;40178;53.042;6.406;2023-07-20T11:31:35;21.70;99.90
54264;DHT22;40178;53.042;6.406;2023-07-20T11:34:00;21.70;99.90
54264;DHT22;40178;53.042;6.406;2023-07-20T11:36:26;22.10;99.90
54264;DHT22;40178;53.042;6.406;2023-07-20T11:38:52;21.90;99.90
54264;DHT22;40178;53.042;6.406;2023-07-20T11:41:19;22.00;87.60
54264;DHT22;40178;53.042;6.406;2023-07-20T11:43:45;22.00;86.80
54264;DHT22;40178;53.042;6.406;2023-07-20T11:46:11;21.70;31.10
54264;DHT22;40178;53.042;6.406;2023-07-20T11:48:36;21.50;51.60
54264;DHT22;40178;53.042;6.406;2023-07-20T11:51:02;21.30;53.10
54264;DHT22;40178;53.042;6.406;2023-07-20T11:53:28;21.20;46.60
54264;DHT22;40178;53.042;6.406;2023-07-20T11:55:54;21.00;99.90
54264;DHT22;40178;53.042;6.406;2023-07-20T11:58:20;20.90;99.90
54264;DHT22;40178;53.042;6.406;2023-07-20T12:00:47;20.80;99.90
54264;DHT22;40178;53.042;6.406;2023-07-20T12:03:13;20.60;99.90
54264;DHT22;40178;53.042;6.406;2023-07-20T12:05:39;20.80;99.90
54264;DHT22;40178;53.042;6.406;2023-07-20T12:08:05;20.80;99.90
54264;DHT22;40178;53.042;6.406;2023-07-20T12:10:30;20.70;99.90
54264;DHT22;40178;53.042;6.406;2023-07-20T12:13:02;20.70;99.90
54264;DHT22;40178;53.042;6.406;2023-07-20T12:15:30;20.60;99.90
54264;DHT22;40178;53.042;6.406;2023-07-20T12:17:59;20.70;99.90
54264;DHT22;40178;53.042;6.406;2023-07-20T12:20:29;20.70;99.90
54264;DHT22;40178;53.042;6.406;2023-07-20T12:23:00;20.60;99.90
54264;DHT22;40178;53.042;6.406;2023-07-20T12:25:53;20.50;99.90
54264;DHT22;40178;53.042;6.406;2023-07-20T12:28:21;20.50;99.90
54264;DHT22;40178;53.042;6.406;2023-07-20T12:30:47;20.60;99.90
54264;DHT22;40178;53.042;6.406;2023-07-20T12:33:21;20.50;99.90
54264;DHT22;40178;53.042;6.406;2023-07-20T12:35:49;21.00;99.90
54264;DHT22;40178;53.042;6.406;2023-07-20T12:38:15;21.20;99.90
54264;DHT22;40178;53.042;6.406;2023-07-20T12:40:41;21.10;99.90
54264;DHT22;40178;53.042;6.406;2023-07-20T12:43:07;21.00;99.90
54264;DHT22;40178;53.042;6.406;2023-07-20T12:45:33;21.20;99.90
54264;DHT22;40178;53.042;6.406;2023-07-20T12:47:59;21.30;99.90
54264;DHT22;40178;53.042;6.406;2023-07-20T12:50:25;21.60;99.90
54264;DHT22;40178;53.042;6.406;2023-07-20T12:52:50;21.70;99.90
54264;DHT22;40178;53.042;6.406;2023-07-20T12:55:16;21.60;99.90
54264;DHT22;40178;53.042;6.406;2023-07-20T12:57:42;21.40;99.90
54264;DHT22;40178;53.042;6.406;2023-07-20T13:00:10;21.00;99.90
54264;DHT22;40178;53.042;6.406;2023-07-20T13:02:38;20.70;99.90
54264;DHT22;40178;53.042;6.406;2023-07-20T13:05:04;20.60;99.90
54264;DHT22;40178;53.042;6.406;2023-07-20T13:07:48;20.90;99.90
54264;DHT22;40178;53.042;6.406;2023-07-20T13:10:13;21.10;99.90
54264;DHT22;40178;53.042;6.406;2023-07-20T13:12:39;21.10;99.90
54264;DHT22;40178;53.042;6.406;2023-07-20T13:15:07;21.30;99.90
54264;DHT22;40178;53.042;6.406;2023-07-20T13:17:37;21.10;99.90
54264;DHT22;40178;53.042;6.406;2023-07-20T13:20:03;21.00;99.90
54264;DHT22;40178;53.042;6.406;2023-07-20T13:22:33;20.90;99.90
54264;DHT22;40178;53.042;6.406;2023-07-20T13:24:59;20.70;99.90
54264;DHT22;40178;53.042;6.406;2023-07-20T13:27:25;20.80;99.90
54264;DHT22;40178;53.042;6.406;2023-07-20T13:29:51;20.70;99.90
54264;DHT22;40178;53.042;6.406;2023-07-20T13:32:17;20.80;99.90
54264;DHT22;40178;53.042;6.406;2023-07-20T13:34:44;20.80;99.90
54264;DHT22;40178;53.042;6.406;2023-07-20T13:37:10;20.90;99.90
54264;DHT22;40178;53.042;6.406;2023-07-20T13:39:36;21.00;99.90
54264;DHT22;40178;53.042;6.406;2023-07-20T13:42:02;21.10;99.90
54264;DHT22;40178;53.042;6.406;2023-07-20T13:44:31;21.00;99.90
54264;DHT22;40178;53.042;6.406;2023-07-20T13:46:56;20.90;99.90
54264;DHT22;40178;53.042;6.406;2023-07-20T13:49:22;21.10;99.90
54264;DHT22;40178;53.042;6.406;2023-07-20T13:51:48;21.50;99.90
54264;DHT22;40178;53.042;6.406;2023-07-20T13:54:14;21.70;99.90
54264;DHT22;40178;53.042;6.406;2023-07-20T13:56:39;21.70;99.90
54264;DHT22;40178;53.042;6.406;2023-07-20T13:59:05;21.80;99.90
54264;DHT22;40178;53.042;6.406;2023-07-20T14:01:31;21.80;99.90
54264;DHT22;40178;53.042;6.406;2023-07-20T14:03:59;21.80;99.90
54264;DHT22;40178;53.042;6.406;2023-07-20T14:06:26;21.90;99.90
54264;DHT22;40178;53.042;6.406;2023-07-20T14:08:51;22.10;99.90
54264;DHT22;40178;53.042;6.406;2023-07-20T14:11:18;22.30;99.90
54264;DHT22;40178;53.042;6.406;2023-07-20T14:13:44;22.20;99.90
54264;DHT22;40178;53.042;6.406;2023-07-20T14:16:10;22.30;99.90
54264;DHT22;40178;53.042;6.406;2023-07-20T14:18:36;22.20;99.90
54264;DHT22;40178;53.042;6.406;2023-07-20T14:21:02;22.20;99.90
54264;DHT22;40178;53.042;6.406;2023-07-20T14:23:29;22.10;95.00
54264;DHT22;40178;53.042;6.406;2023-07-20T14:25:55;22.40;98.70
54264;DHT22;40178;53.042;6.406;2023-07-20T14:28:21;22.10;78.40
54264;DHT22;40178;53.042;6.406;2023-07-20T14:30:46;21.90;58.60
54264;DHT22;40178;53.042;6.406;2023-07-20T14:33:12;21.80;68.50
54264;DHT22;40178;53.042;6.406;2023-07-20T14:35:38;21.70;43.10
54264;DHT22;40178;53.042;6.406;2023-07-20T14:38:03;21.80;32.20
54264;DHT22;40178;53.042;6.406;2023-07-20T14:40:29;22.00;67.90
54264;DHT22;40178;53.042;6.406;2023-07-20T14:42:55;21.90;19.80
54264;DHT22;40178;53.042;6.406;2023-07-20T14:45:21;21.80;22.40
54264;DHT22;40178;53.042;6.406;2023-07-20T14:47:47;21.70;20.40
54264;DHT22;40178;53.042;6.406;2023-07-20T14:50:19;21.60;9.30
54264;DHT22;40178;53.042;6.406;2023-07-20T14:52:45;21.50;1.00
54264;DHT22;40178;53.042;6.406;2023-07-20T14:55:10;21.60;8.00
54264;DHT22;40178;53.042;6.406;2023-07-20T14:57:36;21.60;27.90
54264;DHT22;40178;53.042;6.406;2023-07-20T15:00:02;21.80;57.60
54264;DHT22;40178;53.042;6.406;2023-07-20T15:02:32;22.10;72.50
54264;DHT22;40178;53.042;6.406;2023-07-20T15:04:58;22.20;82.70
54264;DHT22;40178;53.042;6.406;2023-07-20T15:07:23;22.30;83.80
54264;DHT22;40178;53.042;6.406;2023-07-20T15:09:49;22.60;95.50
54264;DHT22;40178;53.042;6.406;2023-07-20T15:12:14;22.70;24.60
54264;DHT22;40178;53.042;6.406;2023-07-20T15:14:41;22.70;10.10
54264;DHT22;40178;53.042;6.406;2023-07-20T15:17:08;22.70;1.00
54264;DHT22;40178;53.042;6.406;2023-07-20T15:19:34;22.50;1.00
54264;DHT22;40178;53.042;6.406;2023-07-20T15:22:04;22.50;1.00
54264;DHT22;40178;53.042;6.406;2023-07-20T15:24:32;22.40;1.00
54264;DHT22;40178;53.042;6.406;2023-07-20T15:26:57;22.20;1.00
54264;DHT22;40178;53.042;6.406;2023-07-20T15:29:23;22.20;1.00
54264;DHT22;40178;53.042;6.406;2023-07-20T15:31:49;22.20;1.00
54264;DHT22;40178;53.042;6.406;2023-07-20T15:34:15;22.20;1.00
54264;DHT22;40178;53.042;6.406;2023-07-20T15:36:41;21.90;1.00
54264;DHT22;40178;53.042;6.406;2023-07-20T15:39:07;21.90;1.00
54264;DHT22;40178;53.042;6.406;2023-07-20T15:41:33;21.80;1.00
54264;DHT22;40178;53.042;6.406;2023-07-20T15:43:59;21.60;1.00